createdAt,value
2017-08-27T00:00:11.852Z,18.00
2017-08-27T00:02:40.440Z,18.00
2017-08-27T00:05:08.302Z,18.00
2017-08-27T00:07:35.937Z,18.00
2017-08-27T00:10:03.466Z,18.00
2017-08-27T00:12:31.378Z,18.00
2017-08-27T00:14:59.057Z,18.10
2017-08-27T00:17:26.618Z,18.10
2017-08-27T00:19:54.155Z,18.20
2017-08-27T00:22:21.706Z,18.10
2017-08-27T00:24:49.243Z,18.10
2017-08-27T00:27:16.810Z,17.90
2017-08-27T00:29:44.403Z,17.80
2017-08-27T00:32:11.927Z,17.70
2017-08-27T00:34:39.482Z,17.70
2017-08-27T00:37:07.125Z,17.50
2017-08-27T00:39:34.677Z,17.30
2017-08-27T00:42:02.215Z,17.30
2017-08-27T00:44:29.762Z,17.20
2017-08-27T00:46:57.300Z,17.30
2017-08-27T00:49:24.850Z,17.30
2017-08-27T00:51:52.383Z,17.30
2017-08-27T00:54:20.171Z,17.20
2017-08-27T00:56:47.707Z,17.10
2017-08-27T00:59:15.266Z,17.10
2017-08-27T01:01:42.797Z,17.20
2017-08-27T01:04:10.444Z,17.30
2017-08-27T01:06:37.971Z,17.20
2017-08-27T01:09:05.523Z,17.10
2017-08-27T01:11:33.054Z,17.00
2017-08-27T01:14:00.601Z,16.90
2017-08-27T01:16:28.135Z,16.90
2017-08-27T01:18:55.691Z,16.90
2017-08-27T01:21:23.228Z,17.00
2017-08-27T01:23:50.786Z,17.10
2017-08-27T01:26:18.315Z,17.00
2017-08-27T01:28:45.886Z,17.00
2017-08-27T01:31:14.359Z,17.00
2017-08-27T01:33:41.897Z,17.00
2017-08-27T01:36:09.451Z,17.10
2017-08-27T01:38:36.982Z,16.90
2017-08-27T01:41:04.539Z,16.90
2017-08-27T01:43:32.070Z,16.90
2017-08-27T01:45:59.623Z,16.90
2017-08-27T01:48:27.154Z,16.80
2017-08-27T01:50:54.714Z,16.70
2017-08-27T01:53:22.277Z,16.80
2017-08-27T01:55:49.833Z,16.70
2017-08-27T01:58:17.374Z,16.70
2017-08-27T02:00:44.927Z,16.60
2017-08-27T02:03:12.463Z,16.70
2017-08-27T02:05:40.025Z,16.60
2017-08-27T02:08:07.554Z,16.60
2017-08-27T02:10:35.112Z,16.70
2017-08-27T02:13:02.661Z,16.70
2017-08-27T02:15:30.215Z,16.90
2017-08-27T02:17:57.747Z,17.00
2017-08-27T02:20:25.302Z,17.20
2017-08-27T02:22:52.835Z,17.40
2017-08-27T02:25:20.382Z,17.40
2017-08-27T02:27:47.915Z,17.50
2017-08-27T02:30:15.475Z,17.50
2017-08-27T02:32:43.075Z,17.50
2017-08-27T02:35:10.608Z,17.50
2017-08-27T02:37:38.168Z,17.50
2017-08-27T02:40:05.694Z,17.30
2017-08-27T02:42:33.238Z,17.10
2017-08-27T02:45:00.766Z,17.10
2017-08-27T02:47:28.326Z,17.00
2017-08-27T02:49:55.863Z,16.90
2017-08-27T02:52:23.410Z,16.80
2017-08-27T02:54:50.938Z,16.80
2017-08-27T02:57:18.491Z,16.80
2017-08-27T02:59:46.789Z,16.80
2017-08-27T03:02:14.334Z,16.80
2017-08-27T03:04:41.867Z,16.70
2017-08-27T03:07:09.419Z,16.80
2017-08-27T03:09:36.955Z,16.80
2017-08-27T03:12:04.506Z,16.80
2017-08-27T03:14:32.031Z,16.70
2017-08-27T03:16:59.583Z,16.70
2017-08-27T03:19:27.121Z,16.70
2017-08-27T03:21:54.688Z,16.70
2017-08-27T03:24:22.223Z,16.70
2017-08-27T03:26:49.770Z,16.70
2017-08-27T03:29:17.307Z,16.60
2017-08-27T03:31:44.896Z,16.80
2017-08-27T03:34:12.419Z,16.70
2017-08-27T03:36:39.946Z,16.70
2017-08-27T03:39:07.506Z,16.70
2017-08-27T03:41:35.039Z,16.70
2017-08-27T03:44:02.586Z,16.60
2017-08-27T03:46:30.119Z,16.60
2017-08-27T03:48:57.678Z,16.70
2017-08-27T03:51:25.211Z,16.80
2017-08-27T03:53:52.770Z,16.80
2017-08-27T03:56:20.308Z,16.90
2017-08-27T03:58:47.864Z,17.00
2017-08-27T04:01:15.390Z,17.00
2017-08-27T04:03:42.949Z,16.80
2017-08-27T04:06:10.473Z,16.80
2017-08-27T04:08:38.022Z,16.80
2017-08-27T04:11:05.546Z,16.80
2017-08-27T04:13:33.094Z,16.90
2017-08-27T04:16:00.625Z,16.90
2017-08-27T04:18:28.171Z,17.10
2017-08-27T04:20:55.694Z,17.10
2017-08-27T04:23:23.241Z,17.20
2017-08-27T04:25:50.772Z,17.10
2017-08-27T04:28:18.327Z,17.10
2017-08-27T04:30:45.855Z,17.10
2017-08-27T04:33:13.414Z,16.90
2017-08-27T04:35:40.947Z,16.70
2017-08-27T04:38:08.490Z,16.60
2017-08-27T04:40:36.051Z,16.60
2017-08-27T04:43:03.578Z,16.50
2017-08-27T04:45:31.122Z,16.40
2017-08-27T04:47:58.654Z,16.40
2017-08-27T04:50:26.206Z,16.40
2017-08-27T04:52:53.735Z,16.30
2017-08-27T04:55:21.289Z,16.40
2017-08-27T04:57:48.815Z,16.40
2017-08-27T05:00:16.366Z,16.30
2017-08-27T05:02:43.895Z,16.40
2017-08-27T05:05:11.438Z,16.40
2017-08-27T05:07:38.963Z,16.40
2017-08-27T05:10:06.519Z,16.60
2017-08-27T05:12:34.042Z,16.80
2017-08-27T05:15:01.592Z,16.90
2017-08-27T05:17:29.117Z,17.00
2017-08-27T05:19:56.666Z,16.90
2017-08-27T05:22:24.202Z,16.80
2017-08-27T05:24:51.756Z,16.80
2017-08-27T05:27:19.299Z,17.00
2017-08-27T05:29:46.847Z,17.20
2017-08-27T05:32:14.370Z,17.30
2017-08-27T05:34:41.940Z,17.30
2017-08-27T05:37:09.471Z,17.40
2017-08-27T05:39:36.995Z,17.40
2017-08-27T05:42:04.541Z,17.40
2017-08-27T05:44:32.070Z,17.60
2017-08-27T05:46:59.621Z,17.70
2017-08-27T05:49:27.155Z,17.70
2017-08-27T05:51:54.717Z,17.70
2017-08-27T05:54:22.272Z,17.80
2017-08-27T05:56:49.827Z,17.70
2017-08-27T05:59:17.353Z,17.60
2017-08-27T06:01:44.906Z,17.50
2017-08-27T06:04:12.439Z,17.50
2017-08-27T06:06:39.994Z,17.80
2017-08-27T06:09:07.523Z,18.00
2017-08-27T06:11:35.087Z,18.10
2017-08-27T06:14:02.619Z,18.20
2017-08-27T06:16:30.170Z,18.00
2017-08-27T06:18:57.704Z,17.90
2017-08-27T06:21:25.266Z,18.10
2017-08-27T06:23:52.799Z,18.40
2017-08-27T06:26:20.350Z,18.30
2017-08-27T06:28:47.887Z,18.20
2017-08-27T06:31:15.448Z,18.20
2017-08-27T06:33:42.977Z,18.10
2017-08-27T06:36:10.546Z,18.10
2017-08-27T06:38:38.162Z,18.30
2017-08-27T06:41:05.692Z,18.40
2017-08-27T06:43:33.245Z,18.60
2017-08-27T06:46:00.779Z,18.70
2017-08-27T06:48:28.331Z,18.80
2017-08-27T06:50:55.883Z,19.00
2017-08-27T06:53:23.443Z,19.40
2017-08-27T06:55:50.974Z,19.00
2017-08-27T06:58:18.535Z,19.00
2017-08-27T07:00:46.071Z,19.10
2017-08-27T07:03:13.626Z,19.10
2017-08-27T07:05:41.156Z,19.70
2017-08-27T07:08:08.724Z,20.10
2017-08-27T07:10:36.255Z,20.00
2017-08-27T07:13:03.820Z,20.00
2017-08-27T07:15:31.347Z,19.60
2017-08-27T07:17:58.905Z,19.80
2017-08-27T07:20:26.449Z,19.90
2017-08-27T07:22:54.014Z,19.80
2017-08-27T07:25:21.551Z,19.80
2017-08-27T07:27:49.097Z,19.80
2017-08-27T07:30:16.635Z,19.90
2017-08-27T07:32:44.195Z,19.60
2017-08-27T07:35:11.723Z,20.00
2017-08-27T07:37:39.294Z,20.10
2017-08-27T07:40:06.830Z,20.40
2017-08-27T07:42:34.361Z,20.40
2017-08-27T07:45:01.916Z,20.40
2017-08-27T07:47:29.509Z,20.30
2017-08-27T07:49:57.122Z,20.40
2017-08-27T07:52:24.654Z,20.30
2017-08-27T07:54:52.215Z,20.30
2017-08-27T07:57:19.742Z,20.30
2017-08-27T07:59:47.289Z,20.30
2017-08-27T08:02:14.831Z,20.50
2017-08-27T08:04:42.383Z,20.70
2017-08-27T08:07:09.916Z,20.50
2017-08-27T08:09:37.475Z,20.30
2017-08-27T08:12:05.002Z,20.10
2017-08-27T08:14:32.568Z,20.70
2017-08-27T08:17:00.104Z,20.80
2017-08-27T08:19:27.654Z,20.60
2017-08-27T08:21:55.182Z,20.50
2017-08-27T08:24:22.739Z,20.60
2017-08-27T08:26:50.278Z,20.70
2017-08-27T08:29:17.835Z,20.80
2017-08-27T08:31:45.367Z,20.70
2017-08-27T08:34:12.923Z,21.00
2017-08-27T08:36:40.447Z,21.50
2017-08-27T08:39:08.003Z,21.30
2017-08-27T08:41:35.530Z,21.10
2017-08-27T08:44:03.058Z,21.40
2017-08-27T08:46:30.607Z,21.90
2017-08-27T08:48:58.134Z,22.70
2017-08-27T08:51:25.686Z,23.10
2017-08-27T08:53:53.224Z,23.00
2017-08-27T08:56:20.784Z,22.80
2017-08-27T08:58:48.316Z,22.90
2017-08-27T09:01:15.873Z,23.20
2017-08-27T09:03:43.404Z,23.50
2017-08-27T09:06:10.963Z,23.20
2017-08-27T09:08:38.490Z,23.60
2017-08-27T09:11:06.047Z,23.30
2017-08-27T09:13:33.583Z,22.90
2017-08-27T09:16:01.135Z,23.00
2017-08-27T09:18:28.666Z,23.30
2017-08-27T09:20:56.223Z,22.90
2017-08-27T09:23:23.750Z,22.80
2017-08-27T09:25:51.313Z,23.10
2017-08-27T09:28:18.838Z,24.00
2017-08-27T09:30:46.390Z,24.90
2017-08-27T09:33:13.915Z,25.30
2017-08-27T09:35:41.474Z,24.90
2017-08-27T09:38:09.003Z,25.20
2017-08-27T09:40:36.563Z,24.70
2017-08-27T09:43:04.087Z,24.40
2017-08-27T09:45:31.619Z,25.10
2017-08-27T09:47:59.176Z,25.20
2017-08-27T09:50:26.716Z,24.70
2017-08-27T09:52:54.280Z,24.60
2017-08-27T09:55:21.820Z,24.70
2017-08-27T09:57:49.381Z,25.10
2017-08-27T10:00:16.914Z,25.10
2017-08-27T10:02:44.466Z,25.00
2017-08-27T10:05:11.999Z,24.80
2017-08-27T10:07:39.559Z,24.80
2017-08-27T10:10:07.088Z,25.40
2017-08-27T10:12:34.650Z,25.60
2017-08-27T10:15:02.186Z,25.50
2017-08-27T10:17:29.735Z,25.80
2017-08-27T10:19:57.267Z,26.00
2017-08-27T10:22:24.826Z,26.20
2017-08-27T10:24:53.123Z,26.40
2017-08-27T10:27:20.689Z,26.40
2017-08-27T10:29:48.231Z,26.50
2017-08-27T10:32:15.783Z,25.40
2017-08-27T10:34:43.311Z,25.60
2017-08-27T10:37:10.864Z,25.40
2017-08-27T10:39:38.395Z,25.90
2017-08-27T10:42:05.971Z,25.90
2017-08-27T10:44:33.514Z,25.40
2017-08-27T10:47:01.047Z,25.60
2017-08-27T10:49:28.590Z,26.10
2017-08-27T10:51:56.135Z,26.70
2017-08-27T10:54:23.691Z,26.80
2017-08-27T10:56:51.214Z,27.20
2017-08-27T10:59:18.786Z,26.80
2017-08-27T11:01:46.315Z,26.80
2017-08-27T11:04:13.875Z,27.10
2017-08-27T11:06:41.404Z,27.10
2017-08-27T11:09:08.959Z,25.70
2017-08-27T11:11:36.489Z,26.00
2017-08-27T11:14:04.046Z,25.10
2017-08-27T11:16:31.570Z,24.70
2017-08-27T11:18:59.123Z,25.40
2017-08-27T11:21:26.659Z,25.80
2017-08-27T11:23:54.218Z,26.10
2017-08-27T11:26:21.742Z,26.30
2017-08-27T11:28:49.299Z,26.20
2017-08-27T11:31:16.831Z,26.20
2017-08-27T11:33:44.395Z,26.40
2017-08-27T11:36:11.919Z,26.30
2017-08-27T11:38:39.474Z,25.80
2017-08-27T11:41:07.007Z,25.20
2017-08-27T11:43:35.308Z,26.20
2017-08-27T11:46:02.864Z,26.30
2017-08-27T11:48:30.398Z,26.60
2017-08-27T11:50:57.954Z,26.20
2017-08-27T11:53:25.492Z,25.70
2017-08-27T11:55:53.062Z,25.60
2017-08-27T11:58:20.591Z,26.10
2017-08-27T12:00:48.146Z,26.40
2017-08-27T12:03:15.678Z,26.00
2017-08-27T12:05:43.230Z,25.30
2017-08-27T12:08:11.527Z,26.60
2017-08-27T12:10:39.084Z,26.60
2017-08-27T12:13:06.615Z,27.20
2017-08-27T12:15:34.178Z,26.20
2017-08-27T12:18:01.715Z,26.20
2017-08-27T12:20:29.271Z,26.20
2017-08-27T12:22:56.802Z,26.20
2017-08-27T12:25:24.359Z,26.70
2017-08-27T12:27:51.907Z,27.20
2017-08-27T12:30:19.452Z,26.90
2017-08-27T12:32:46.980Z,27.40
2017-08-27T12:35:14.526Z,27.50
2017-08-27T12:37:42.055Z,27.60
2017-08-27T12:40:09.626Z,27.80
2017-08-27T12:42:37.159Z,27.80
2017-08-27T12:45:04.698Z,27.20
2017-08-27T12:47:32.259Z,27.20
2017-08-27T12:49:59.807Z,26.20
2017-08-27T12:52:27.374Z,26.20
2017-08-27T12:54:54.913Z,26.10
2017-08-27T12:57:22.474Z,26.30
2017-08-27T12:59:50.014Z,26.20
2017-08-27T13:02:17.582Z,26.00
2017-08-27T13:04:45.115Z,26.60
2017-08-27T13:07:12.672Z,26.60
2017-08-27T13:09:40.203Z,26.60
2017-08-27T13:12:07.763Z,26.60
2017-08-27T13:14:35.297Z,26.90
2017-08-27T13:17:02.849Z,27.00
2017-08-27T13:19:30.392Z,26.90
2017-08-27T13:21:57.949Z,26.80
2017-08-27T13:24:25.478Z,26.80
2017-08-27T13:26:53.039Z,27.00
2017-08-27T13:29:20.576Z,27.10
2017-08-27T13:31:48.137Z,27.40
2017-08-27T13:34:15.672Z,27.30
2017-08-27T13:36:43.228Z,26.40
2017-08-27T13:39:10.764Z,26.30
2017-08-27T13:41:38.327Z,26.00
2017-08-27T13:44:05.857Z,26.50
2017-08-27T13:46:33.385Z,25.90
2017-08-27T13:49:00.943Z,26.30
2017-08-27T13:51:28.476Z,26.70
2017-08-27T13:53:56.030Z,26.80
2017-08-27T13:56:23.550Z,26.70
2017-08-27T13:58:51.101Z,26.70
2017-08-27T14:01:18.636Z,26.60
2017-08-27T14:03:46.198Z,26.70
2017-08-27T14:06:13.735Z,26.60
2017-08-27T14:08:41.281Z,26.90
2017-08-27T14:11:08.816Z,27.00
2017-08-27T14:13:36.376Z,27.00
2017-08-27T14:16:03.906Z,27.20
2017-08-27T14:18:31.460Z,27.50
2017-08-27T14:20:58.989Z,27.80
2017-08-27T14:23:26.538Z,27.40
2017-08-27T14:25:54.067Z,27.00
2017-08-27T14:28:21.630Z,27.30
2017-08-27T14:30:49.158Z,27.10
2017-08-27T14:33:16.716Z,27.80
2017-08-27T14:35:44.248Z,28.20
2017-08-27T14:38:11.799Z,28.10
2017-08-27T14:40:39.331Z,27.80
2017-08-27T14:43:06.882Z,27.40
2017-08-27T14:45:34.410Z,27.20
2017-08-27T14:48:01.978Z,27.20
2017-08-27T14:50:29.514Z,27.10
2017-08-27T14:52:57.038Z,26.40
2017-08-27T14:55:24.587Z,26.20
2017-08-27T14:57:52.114Z,26.20
2017-08-27T15:00:19.667Z,26.40
2017-08-27T15:02:47.198Z,26.30
2017-08-27T15:05:14.771Z,26.20
2017-08-27T15:07:42.301Z,26.30
2017-08-27T15:10:09.859Z,26.10
2017-08-27T15:12:37.390Z,26.00
2017-08-27T15:15:04.943Z,25.80
2017-08-27T15:17:32.490Z,26.10
2017-08-27T15:20:00.038Z,25.90
2017-08-27T15:22:27.565Z,25.60
2017-08-27T15:24:55.123Z,26.00
2017-08-27T15:27:22.651Z,26.20
2017-08-27T15:29:50.202Z,26.30
2017-08-27T15:32:17.748Z,26.20
2017-08-27T15:34:45.298Z,26.00
2017-08-27T15:37:12.822Z,25.70
2017-08-27T15:39:40.378Z,26.10
2017-08-27T15:42:07.906Z,26.20
2017-08-27T15:44:35.471Z,26.00
2017-08-27T15:47:03.008Z,26.10
2017-08-27T15:49:30.543Z,26.10
2017-08-27T15:51:58.106Z,26.20
2017-08-27T15:54:25.635Z,26.10
2017-08-27T15:56:53.190Z,26.20
2017-08-27T15:59:20.721Z,26.20
2017-08-27T16:01:48.266Z,26.20
2017-08-27T16:04:15.798Z,26.10
2017-08-27T16:06:43.349Z,26.00
2017-08-27T16:09:10.888Z,26.10
2017-08-27T16:11:38.439Z,26.00
2017-08-27T16:14:05.980Z,25.90
2017-08-27T16:16:33.538Z,25.90
2017-08-27T16:19:01.067Z,25.90
2017-08-27T16:21:28.626Z,25.80
2017-08-27T16:23:56.154Z,25.70
2017-08-27T16:26:23.710Z,25.70
2017-08-27T16:28:51.237Z,25.70
2017-08-27T16:31:18.794Z,25.60
2017-08-27T16:33:46.329Z,25.60
2017-08-27T16:36:13.889Z,25.60
2017-08-27T16:38:41.419Z,25.50
2017-08-27T16:41:08.972Z,25.40
2017-08-27T16:43:36.498Z,25.40
2017-08-27T16:46:04.053Z,25.30
2017-08-27T16:48:31.589Z,25.30
2017-08-27T16:50:59.169Z,25.30
2017-08-27T16:53:26.699Z,25.20
2017-08-27T16:55:54.228Z,25.00
2017-08-27T16:58:21.778Z,24.90
2017-08-27T17:00:49.303Z,24.80
2017-08-27T17:03:16.858Z,24.80
2017-08-27T17:05:44.403Z,24.70
2017-08-27T17:08:11.967Z,24.50
2017-08-27T17:10:39.494Z,24.50
2017-08-27T17:13:07.054Z,24.30
2017-08-27T17:15:34.586Z,24.30
2017-08-27T17:18:02.152Z,24.20
2017-08-27T17:20:29.687Z,24.20
2017-08-27T17:22:57.239Z,23.90
2017-08-27T17:25:24.773Z,23.50
2017-08-27T17:27:52.343Z,23.20
2017-08-27T17:30:19.889Z,23.00
2017-08-27T17:32:47.455Z,23.00
2017-08-27T17:35:14.983Z,23.00
2017-08-27T17:37:42.547Z,22.90
2017-08-27T17:40:10.075Z,23.00
2017-08-27T17:42:37.642Z,22.90
2017-08-27T17:45:05.176Z,22.90
2017-08-27T17:47:32.742Z,22.80
2017-08-27T17:50:00.271Z,22.70
2017-08-27T17:52:27.822Z,22.60
2017-08-27T17:54:55.378Z,22.50
2017-08-27T17:57:22.919Z,22.40
2017-08-27T17:59:50.479Z,22.40
2017-08-27T18:02:18.011Z,22.30
2017-08-27T18:04:45.580Z,22.20
2017-08-27T18:07:13.114Z,22.00
2017-08-27T18:09:40.672Z,21.80
2017-08-27T18:12:08.198Z,21.70
2017-08-27T18:14:35.746Z,21.60
2017-08-27T18:17:03.282Z,21.60
2017-08-27T18:19:30.837Z,21.50
2017-08-27T18:21:58.379Z,21.40
2017-08-27T18:24:25.939Z,21.30
2017-08-27T18:26:53.463Z,21.50
2017-08-27T18:29:21.027Z,21.80
2017-08-27T18:31:48.562Z,22.00
2017-08-27T18:34:16.795Z,21.90
2017-08-27T18:36:46.146Z,22.00
2017-08-27T18:39:14.762Z,22.00
2017-08-27T18:41:43.314Z,22.00
2017-08-27T18:44:10.874Z,22.00
2017-08-27T18:46:38.422Z,21.80
2017-08-27T18:49:06.015Z,21.70
2017-08-27T18:51:33.554Z,21.70
2017-08-27T18:54:01.106Z,21.60
2017-08-27T18:56:28.650Z,21.50
2017-08-27T18:58:56.178Z,21.50
2017-08-27T19:01:23.734Z,21.50
2017-08-27T19:03:57.035Z,21.50
2017-08-27T19:06:24.591Z,21.50
2017-08-27T19:08:52.132Z,21.40
2017-08-27T19:11:19.689Z,21.40
2017-08-27T19:13:47.231Z,21.40
2017-08-27T19:16:14.795Z,21.30
2017-08-27T19:18:42.345Z,21.30
2017-08-27T19:21:09.908Z,21.30
2017-08-27T19:23:37.447Z,21.20
2017-08-27T19:26:05.016Z,21.10
2017-08-27T19:28:32.553Z,21.20
2017-08-27T19:31:00.128Z,21.20
2017-08-27T19:33:27.670Z,21.10
2017-08-27T19:35:55.230Z,21.10
2017-08-27T19:38:22.767Z,21.10
2017-08-27T19:40:50.351Z,21.10
2017-08-27T19:43:17.892Z,21.00
2017-08-27T19:45:45.458Z,20.90
2017-08-27T19:48:12.987Z,20.80
2017-08-27T19:50:40.546Z,20.80
2017-08-27T19:53:08.089Z,20.70
2017-08-27T19:55:35.711Z,20.50
2017-08-27T19:58:03.288Z,20.40
2017-08-27T20:00:30.830Z,20.20
2017-08-27T20:02:58.412Z,20.10
2017-08-27T20:05:25.948Z,19.80
2017-08-27T20:07:53.514Z,19.60
2017-08-27T20:10:21.052Z,19.50
2017-08-27T20:12:48.618Z,19.40
2017-08-27T20:15:16.151Z,19.50
2017-08-27T20:17:43.710Z,19.40
2017-08-27T20:20:11.242Z,19.40
2017-08-27T20:22:38.818Z,19.40
2017-08-27T20:25:06.347Z,19.60
2017-08-27T20:27:33.903Z,19.60
2017-08-27T20:30:01.436Z,19.50
2017-08-27T20:32:28.994Z,19.50
2017-08-27T20:34:56.527Z,19.40
2017-08-27T20:37:24.103Z,19.30
2017-08-27T20:39:51.654Z,19.30
2017-08-27T20:42:19.223Z,19.20
2017-08-27T20:44:46.756Z,19.10
2017-08-27T20:47:14.326Z,19.10
2017-08-27T20:49:41.862Z,18.90
2017-08-27T20:52:09.419Z,18.80
2017-08-27T20:54:36.960Z,18.70
2017-08-27T20:57:04.540Z,18.80
2017-08-27T20:59:32.084Z,18.70
2017-08-27T21:01:59.628Z,18.70
2017-08-27T21:04:27.184Z,18.70
2017-08-27T21:06:54.731Z,18.80
2017-08-27T21:09:22.304Z,18.80
2017-08-27T21:11:49.836Z,18.70
2017-08-27T21:14:17.399Z,18.60
2017-08-27T21:16:44.931Z,18.60
2017-08-27T21:19:12.490Z,18.60
2017-08-27T21:21:40.021Z,18.40
2017-08-27T21:24:07.571Z,18.40
2017-08-27T21:26:35.103Z,18.30
2017-08-27T21:29:02.665Z,18.20
2017-08-27T21:31:30.203Z,18.20
2017-08-27T21:33:57.764Z,18.30
2017-08-27T21:36:25.306Z,18.40
2017-08-27T21:38:52.863Z,18.40
2017-08-27T21:41:20.390Z,18.30
2017-08-27T21:43:47.940Z,18.30
2017-08-27T21:46:15.475Z,18.40
2017-08-27T21:48:43.083Z,18.30
2017-08-27T21:51:10.613Z,18.30
2017-08-27T21:53:38.172Z,18.30
2017-08-27T21:56:05.706Z,18.30
2017-08-27T21:58:33.274Z,18.30
2017-08-27T22:01:00.815Z,18.20
2017-08-27T22:03:28.352Z,18.10
2017-08-27T22:05:55.917Z,17.90
2017-08-27T22:08:23.446Z,17.90
2017-08-27T22:10:51.010Z,17.90
2017-08-27T22:13:18.556Z,18.00
2017-08-27T22:15:46.115Z,17.90
2017-08-27T22:18:13.650Z,17.90
2017-08-27T22:20:41.213Z,17.90
2017-08-27T22:23:08.742Z,17.90
2017-08-27T22:25:36.324Z,17.90
2017-08-27T22:28:03.863Z,17.80
2017-08-27T22:51:05.287Z,17.40
2017-08-27T22:53:32.823Z,17.40
2017-08-27T22:56:00.373Z,17.30
2017-08-27T22:58:27.911Z,17.30
2017-08-27T23:00:55.462Z,17.30
2017-08-27T23:03:22.998Z,17.30
2017-08-27T23:05:50.560Z,17.30
2017-08-27T23:08:18.087Z,17.40
2017-08-27T23:10:45.642Z,17.40
2017-08-27T23:13:13.170Z,17.40
2017-08-27T23:15:40.731Z,17.40
2017-08-27T23:18:08.503Z,17.50
2017-08-27T23:20:36.069Z,17.50
2017-08-27T23:23:03.624Z,17.50
2017-08-27T23:25:31.159Z,17.50
2017-08-27T23:27:58.728Z,17.60
2017-08-27T23:30:26.276Z,17.70
2017-08-27T23:32:53.830Z,17.70
2017-08-27T23:35:21.383Z,17.60
2017-08-27T23:37:48.940Z,17.60
2017-08-27T23:40:16.489Z,17.80
2017-08-27T23:42:44.037Z,17.80
2017-08-27T23:45:11.570Z,17.90
2017-08-27T23:47:39.148Z,17.90
2017-08-27T23:50:06.683Z,17.90
2017-08-27T23:52:34.246Z,18.00
2017-08-27T23:55:01.774Z,17.90
2017-08-27T23:57:29.321Z,17.90
2017-08-27T23:59:56.862Z,17.90
